sensor_id;sensor_type;location;lat;lon;timestamp;temperature;humidity
11989;DHT22;6054;50.966;7.094;2022-10-28T00:01:14;25.90;51.20
11989;DHT22;6054;50.966;7.094;2022-10-28T00:03:43;25.90;51.20
11989;DHT22;6054;50.966;7.094;2022-10-28T00:06:11;25.90;51.30
11989;DHT22;6054;50.966;7.094;2022-10-28T00:08:39;25.90;51.20
11989;DHT22;6054;50.966;7.094;2022-10-28T00:11:07;25.90;51.30
11989;DHT22;6054;50.966;7.094;2022-10-28T00:13:35;25.90;51.40
11989;DHT22;6054;50.966;7.094;2022-10-28T00:16:08;25.90;51.20
11989;DHT22;6054;50.966;7.094;2022-10-28T00:18:36;25.90;51.30
11989;DHT22;6054;50.966;7.094;2022-10-28T00:21:05;25.90;51.20
11989;DHT22;6054;50.966;7.094;2022-10-28T00:23:33;25.90;51.20
11989;DHT22;6054;50.966;7.094;2022-10-28T00:26:05;25.90;51.10
11989;DHT22;6054;50.966;7.094;2022-10-28T00:28:31;25.90;51.30
11989;DHT22;6054;50.966;7.094;2022-10-28T00:31:03;25.90;50.60
11989;DHT22;6054;50.966;7.094;2022-10-28T00:33:30;25.90;51.10
11989;DHT22;6054;50.966;7.094;2022-10-28T00:36:06;26.10;50.70
11989;DHT22;6054;50.966;7.094;2022-10-28T00:38:33;26.10;51.30
11989;DHT22;6054;50.966;7.094;2022-10-28T00:41:00;26.00;50.80
11989;DHT22;6054;50.966;7.094;2022-10-28T00:43:35;26.00;50.50
11989;DHT22;6054;50.966;7.094;2022-10-28T00:46:05;26.20;51.40
11989;DHT22;6054;50.966;7.094;2022-10-28T00:48:33;26.30;51.30
11989;DHT22;6054;50.966;7.094;2022-10-28T00:51:02;26.00;50.40
11989;DHT22;6054;50.966;7.094;2022-10-28T00:53:30;26.10;50.90
11989;DHT22;6054;50.966;7.094;2022-10-28T00:55:59;26.20;50.60
11989;DHT22;6054;50.966;7.094;2022-10-28T00:58:28;26.10;50.90
11989;DHT22;6054;50.966;7.094;2022-10-28T01:00:55;26.10;50.50
11989;DHT22;6054;50.966;7.094;2022-10-28T01:03:22;26.00;50.40
11989;DHT22;6054;50.966;7.094;2022-10-28T01:05:49;26.00;50.40
11989;DHT22;6054;50.966;7.094;2022-10-28T01:08:18;26.30;50.30
11989;DHT22;6054;50.966;7.094;2022-10-28T01:11:00;26.10;50.60
11989;DHT22;6054;50.966;7.094;2022-10-28T01:13:38;26.10;50.60
11989;DHT22;6054;50.966;7.094;2022-10-28T01:16:12;26.00;50.50
11989;DHT22;6054;50.966;7.094;2022-10-28T01:18:44;26.10;50.60
11989;DHT22;6054;50.966;7.094;2022-10-28T01:21:33;26.10;50.30
11989;DHT22;6054;50.966;7.094;2022-10-28T01:24:17;26.30;50.70
11989;DHT22;6054;50.966;7.094;2022-10-28T01:27:21;26.30;50.50
11989;DHT22;6054;50.966;7.094;2022-10-28T01:30:05;26.10;50.50
11989;DHT22;6054;50.966;7.094;2022-10-28T01:32:44;26.10;50.40
11989;DHT22;6054;50.966;7.094;2022-10-28T01:35:20;26.10;50.40
11989;DHT22;6054;50.966;7.094;2022-10-28T01:37:57;26.10;50.40
11989;DHT22;6054;50.966;7.094;2022-10-28T01:40:33;26.00;50.40
11989;DHT22;6054;50.966;7.094;2022-10-28T01:43:07;26.10;50.00
11989;DHT22;6054;50.966;7.094;2022-10-28T01:45:41;26.10;50.10
11989;DHT22;6054;50.966;7.094;2022-10-28T01:48:15;26.20;50.00
11989;DHT22;6054;50.966;7.094;2022-10-28T01:50:50;26.10;50.10
11989;DHT22;6054;50.966;7.094;2022-10-28T01:53:21;26.30;50.30
11989;DHT22;6054;50.966;7.094;2022-10-28T01:55:52;26.20;50.10
11989;DHT22;6054;50.966;7.094;2022-10-28T01:58:25;26.10;50.00
11989;DHT22;6054;50.966;7.094;2022-10-28T02:00:53;26.10;49.70
11989;DHT22;6054;50.966;7.094;2022-10-28T02:03:21;26.10;49.60
11989;DHT22;6054;50.966;7.094;2022-10-28T02:05:49;26.20;49.40
11989;DHT22;6054;50.966;7.094;2022-10-28T02:08:34;26.10;49.60
11989;DHT22;6054;50.966;7.094;2022-10-28T02:11:19;26.30;50.10
11989;DHT22;6054;50.966;7.094;2022-10-28T02:13:54;26.30;50.10
11989;DHT22;6054;50.966;7.094;2022-10-28T02:16:29;26.20;50.00
11989;DHT22;6054;50.966;7.094;2022-10-28T02:19:04;26.40;50.00
11989;DHT22;6054;50.966;7.094;2022-10-28T02:21:42;26.30;50.00
11989;DHT22;6054;50.966;7.094;2022-10-28T02:24:16;26.20;49.80
11989;DHT22;6054;50.966;7.094;2022-10-28T02:26:51;26.20;49.70
11989;DHT22;6054;50.966;7.094;2022-10-28T02:29:26;26.20;49.80
11989;DHT22;6054;50.966;7.094;2022-10-28T02:31:56;26.20;49.80
11989;DHT22;6054;50.966;7.094;2022-10-28T02:34:29;26.40;49.90
11989;DHT22;6054;50.966;7.094;2022-10-28T02:36:59;26.20;50.00
11989;DHT22;6054;50.966;7.094;2022-10-28T02:39:31;26.20;50.00
11989;DHT22;6054;50.966;7.094;2022-10-28T02:42:02;26.20;49.90
11989;DHT22;6054;50.966;7.094;2022-10-28T02:44:34;26.20;50.00
11989;DHT22;6054;50.966;7.094;2022-10-28T02:47:09;26.20;49.80
11989;DHT22;6054;50.966;7.094;2022-10-28T02:49:41;26.20;49.80
11989;DHT22;6054;50.966;7.094;2022-10-28T02:52:09;26.10;49.70
11989;DHT22;6054;50.966;7.094;2022-10-28T02:54:39;26.10;49.60
11989;DHT22;6054;50.966;7.094;2022-10-28T02:57:11;26.10;49.80
11989;DHT22;6054;50.966;7.094;2022-10-28T02:59:39;26.10;49.80
11989;DHT22;6054;50.966;7.094;2022-10-28T03:02:06;26.10;49.80
11989;DHT22;6054;50.966;7.094;2022-10-28T03:04:33;26.10;49.60
11989;DHT22;6054;50.966;7.094;2022-10-28T03:07:01;26.00;49.50
11989;DHT22;6054;50.966;7.094;2022-10-28T03:09:27;26.00;49.30
11989;DHT22;6054;50.966;7.094;2022-10-28T03:11:54;26.10;49.60
11989;DHT22;6054;50.966;7.094;2022-10-28T03:14:21;26.00;49.40
11989;DHT22;6054;50.966;7.094;2022-10-28T03:16:48;26.00;49.50
11989;DHT22;6054;50.966;7.094;2022-10-28T03:19:14;26.00;49.30
11989;DHT22;6054;50.966;7.094;2022-10-28T03:21:41;26.00;49.10
11989;DHT22;6054;50.966;7.094;2022-10-28T03:24:09;26.10;49.20
11989;DHT22;6054;50.966;7.094;2022-10-28T03:26:36;26.00;49.30
11989;DHT22;6054;50.966;7.094;2022-10-28T03:29:03;26.00;49.10
11989;DHT22;6054;50.966;7.094;2022-10-28T03:31:29;26.20;49.30
11989;DHT22;6054;50.966;7.094;2022-10-28T03:33:56;26.10;49.20
11989;DHT22;6054;50.966;7.094;2022-10-28T03:36:23;26.10;49.30
11989;DHT22;6054;50.966;7.094;2022-10-28T03:38:50;26.00;49.20
11989;DHT22;6054;50.966;7.094;2022-10-28T03:41:18;26.20;49.30
11989;DHT22;6054;50.966;7.094;2022-10-28T03:43:45;26.00;49.10
11989;DHT22;6054;50.966;7.094;2022-10-28T03:46:11;26.00;49.10
11989;DHT22;6054;50.966;7.094;2022-10-28T03:48:38;26.30;49.50
11989;DHT22;6054;50.966;7.094;2022-10-28T03:51:05;26.30;49.60
11989;DHT22;6054;50.966;7.094;2022-10-28T03:53:32;26.10;49.50
11989;DHT22;6054;50.966;7.094;2022-10-28T03:56:00;26.00;49.50
11989;DHT22;6054;50.966;7.094;2022-10-28T03:58:28;26.10;50.10
11989;DHT22;6054;50.966;7.094;2022-10-28T04:00:55;26.00;49.90
11989;DHT22;6054;50.966;7.094;2022-10-28T04:03:24;26.00;49.90
11989;DHT22;6054;50.966;7.094;2022-10-28T04:05:51;25.90;50.00
11989;DHT22;6054;50.966;7.094;2022-10-28T04:08:18;26.00;49.40
11989;DHT22;6054;50.966;7.094;2022-10-28T04:10:45;25.90;49.80
11989;DHT22;6054;50.966;7.094;2022-10-28T04:13:16;25.90;49.70
11989;DHT22;6054;50.966;7.094;2022-10-28T04:15:44;26.00;50.20
11989;DHT22;6054;50.966;7.094;2022-10-28T04:18:11;25.90;49.90
11989;DHT22;6054;50.966;7.094;2022-10-28T04:20:38;25.90;50.10
11989;DHT22;6054;50.966;7.094;2022-10-28T04:23:05;25.90;50.40
11989;DHT22;6054;50.966;7.094;2022-10-28T04:25:32;25.80;50.40
11989;DHT22;6054;50.966;7.094;2022-10-28T04:27:59;25.80;50.30
11989;DHT22;6054;50.966;7.094;2022-10-28T04:30:26;25.70;50.20
11989;DHT22;6054;50.966;7.094;2022-10-28T04:32:54;25.70;50.30
11989;DHT22;6054;50.966;7.094;2022-10-28T04:35:20;25.60;50.20
11989;DHT22;6054;50.966;7.094;2022-10-28T04:37:47;25.70;50.20
11989;DHT22;6054;50.966;7.094;2022-10-28T04:40:14;25.60;50.20
11989;DHT22;6054;50.966;7.094;2022-10-28T04:42:41;25.60;50.40
11989;DHT22;6054;50.966;7.094;2022-10-28T04:45:08;25.50;50.40
11989;DHT22;6054;50.966;7.094;2022-10-28T04:47:35;25.50;50.70
11989;DHT22;6054;50.966;7.094;2022-10-28T04:50:04;25.40;50.20
11989;DHT22;6054;50.966;7.094;2022-10-28T04:52:31;25.50;50.80
11989;DHT22;6054;50.966;7.094;2022-10-28T04:54:58;25.40;50.50
11989;DHT22;6054;50.966;7.094;2022-10-28T04:57:24;25.40;50.40
11989;DHT22;6054;50.966;7.094;2022-10-28T04:59:51;25.40;50.40
11989;DHT22;6054;50.966;7.094;2022-10-28T05:02:18;25.30;50.50
11989;DHT22;6054;50.966;7.094;2022-10-28T05:04:45;25.30;50.50
11989;DHT22;6054;50.966;7.094;2022-10-28T05:07:13;25.30;50.50
11989;DHT22;6054;50.966;7.094;2022-10-28T05:09:39;25.30;50.50
11989;DHT22;6054;50.966;7.094;2022-10-28T05:12:06;25.30;50.50
11989;DHT22;6054;50.966;7.094;2022-10-28T05:14:33;25.30;50.50
11989;DHT22;6054;50.966;7.094;2022-10-28T05:17:00;25.40;50.50
11989;DHT22;6054;50.966;7.094;2022-10-28T05:19:26;25.30;50.40
11989;DHT22;6054;50.966;7.094;2022-10-28T05:21:53;25.50;50.40
11989;DHT22;6054;50.966;7.094;2022-10-28T05:24:21;25.40;50.40
11989;DHT22;6054;50.966;7.094;2022-10-28T05:26:48;25.40;50.30
11989;DHT22;6054;50.966;7.094;2022-10-28T05:29:16;25.50;50.20
11989;DHT22;6054;50.966;7.094;2022-10-28T05:31:44;25.50;50.30
11989;DHT22;6054;50.966;7.094;2022-10-28T05:34:11;25.50;50.40
11989;DHT22;6054;50.966;7.094;2022-10-28T05:36:37;25.50;50.40
11989;DHT22;6054;50.966;7.094;2022-10-28T05:39:04;25.50;50.30
11989;DHT22;6054;50.966;7.094;2022-10-28T05:41:32;25.40;50.30
11989;DHT22;6054;50.966;7.094;2022-10-28T05:43:59;25.40;50.30
11989;DHT22;6054;50.966;7.094;2022-10-28T05:46:26;25.40;50.20
11989;DHT22;6054;50.966;7.094;2022-10-28T05:48:52;25.40;50.10
11989;DHT22;6054;50.966;7.094;2022-10-28T05:51:19;25.40;50.00
11989;DHT22;6054;50.966;7.094;2022-10-28T05:53:46;25.40;49.70
11989;DHT22;6054;50.966;7.094;2022-10-28T05:56:15;25.50;50.20
11989;DHT22;6054;50.966;7.094;2022-10-28T05:58:43;25.60;50.30
11989;DHT22;6054;50.966;7.094;2022-10-28T06:01:10;25.40;50.20
11989;DHT22;6054;50.966;7.094;2022-10-28T06:03:37;25.40;50.40
11989;DHT22;6054;50.966;7.094;2022-10-28T06:06:04;25.40;50.60
11989;DHT22;6054;50.966;7.094;2022-10-28T06:08:30;25.40;50.50
11989;DHT22;6054;50.966;7.094;2022-10-28T06:10:57;25.40;50.40
11989;DHT22;6054;50.966;7.094;2022-10-28T06:13:25;25.40;50.20
11989;DHT22;6054;50.966;7.094;2022-10-28T06:15:55;25.50;50.30
11989;DHT22;6054;50.966;7.094;2022-10-28T06:18:22;25.30;50.50
11989;DHT22;6054;50.966;7.094;2022-10-28T06:20:53;25.30;50.50
11989;DHT22;6054;50.966;7.094;2022-10-28T06:23:20;25.30;50.50
11989;DHT22;6054;50.966;7.094;2022-10-28T06:25:47;25.30;51.10
11989;DHT22;6054;50.966;7.094;2022-10-28T06:28:13;25.30;50.50
11989;DHT22;6054;50.966;7.094;2022-10-28T06:30:40;25.30;50.40
11989;DHT22;6054;50.966;7.094;2022-10-28T06:33:08;25.30;50.50
11989;DHT22;6054;50.966;7.094;2022-10-28T06:35:35;25.30;50.50
11989;DHT22;6054;50.966;7.094;2022-10-28T06:38:02;25.30;50.70
11989;DHT22;6054;50.966;7.094;2022-10-28T06:40:28;25.20;50.80
11989;DHT22;6054;50.966;7.094;2022-10-28T06:42:58;25.30;50.90
11989;DHT22;6054;50.966;7.094;2022-10-28T06:45:26;25.30;51.20
11989;DHT22;6054;50.966;7.094;2022-10-28T06:47:56;25.20;51.10
11989;DHT22;6054;50.966;7.094;2022-10-28T06:50:25;25.30;51.20
11989;DHT22;6054;50.966;7.094;2022-10-28T06:52:54;25.30;51.00
11989;DHT22;6054;50.966;7.094;2022-10-28T06:55:21;25.30;51.10
11989;DHT22;6054;50.966;7.094;2022-10-28T06:57:48;25.30;50.80
11989;DHT22;6054;50.966;7.094;2022-10-28T07:00:15;25.30;50.70
11989;DHT22;6054;50.966;7.094;2022-10-28T07:02:42;25.30;50.80
11989;DHT22;6054;50.966;7.094;2022-10-28T07:05:08;25.30;50.70
11989;DHT22;6054;50.966;7.094;2022-10-28T07:07:37;25.50;51.00
11989;DHT22;6054;50.966;7.094;2022-10-28T07:10:04;25.50;50.80
11989;DHT22;6054;50.966;7.094;2022-10-28T07:12:31;25.40;51.20
11989;DHT22;6054;50.966;7.094;2022-10-28T07:14:58;25.40;51.20
11989;DHT22;6054;50.966;7.094;2022-10-28T07:17:25;25.40;51.10
11989;DHT22;6054;50.966;7.094;2022-10-28T07:19:52;25.40;51.30
11989;DHT22;6054;50.966;7.094;2022-10-28T07:22:19;25.30;51.30
11989;DHT22;6054;50.966;7.094;2022-10-28T07:24:47;25.40;51.10
11989;DHT22;6054;50.966;7.094;2022-10-28T07:27:13;25.30;51.60
11989;DHT22;6054;50.966;7.094;2022-10-28T07:29:40;25.40;51.20
11989;DHT22;6054;50.966;7.094;2022-10-28T07:32:07;25.40;51.20
11989;DHT22;6054;50.966;7.094;2022-10-28T07:34:34;25.40;51.20
11989;DHT22;6054;50.966;7.094;2022-10-28T07:37:00;25.40;50.90
11989;DHT22;6054;50.966;7.094;2022-10-28T07:39:28;25.70;51.20
11989;DHT22;6054;50.966;7.094;2022-10-28T07:41:57;25.40;50.90
11989;DHT22;6054;50.966;7.094;2022-10-28T07:44:25;25.50;50.40
11989;DHT22;6054;50.966;7.094;2022-10-28T07:46:52;25.50;50.50
11989;DHT22;6054;50.966;7.094;2022-10-28T07:49:19;25.50;50.50
11989;DHT22;6054;50.966;7.094;2022-10-28T07:51:45;25.60;50.50
11989;DHT22;6054;50.966;7.094;2022-10-28T07:54:14;25.80;50.90
11989;DHT22;6054;50.966;7.094;2022-10-28T07:56:41;25.60;50.20
11989;DHT22;6054;50.966;7.094;2022-10-28T07:59:09;25.60;50.30
11989;DHT22;6054;50.966;7.094;2022-10-28T08:01:36;25.60;50.30
11989;DHT22;6054;50.966;7.094;2022-10-28T08:04:03;25.60;50.30
11989;DHT22;6054;50.966;7.094;2022-10-28T08:06:30;25.80;50.20
11989;DHT22;6054;50.966;7.094;2022-10-28T08:08:56;26.00;50.50
11989;DHT22;6054;50.966;7.094;2022-10-28T08:11:23;25.70;50.00
11989;DHT22;6054;50.966;7.094;2022-10-28T08:13:51;25.80;49.80
11989;DHT22;6054;50.966;7.094;2022-10-28T08:16:19;25.90;50.40
11989;DHT22;6054;50.966;7.094;2022-10-28T08:18:46;25.80;50.10
11989;DHT22;6054;50.966;7.094;2022-10-28T08:21:14;25.90;49.90
11989;DHT22;6054;50.966;7.094;2022-10-28T08:23:41;26.10;50.10
11989;DHT22;6054;50.966;7.094;2022-10-28T08:26:11;26.10;50.10
11989;DHT22;6054;50.966;7.094;2022-10-28T08:28:38;25.90;50.00
11989;DHT22;6054;50.966;7.094;2022-10-28T08:31:05;25.90;49.80
11989;DHT22;6054;50.966;7.094;2022-10-28T08:33:36;25.90;50.00
11989;DHT22;6054;50.966;7.094;2022-10-28T08:36:03;25.90;50.20
11989;DHT22;6054;50.966;7.094;2022-10-28T08:38:30;25.90;50.00
11989;DHT22;6054;50.966;7.094;2022-10-28T08:41:02;26.00;49.90
11989;DHT22;6054;50.966;7.094;2022-10-28T08:43:43;26.00;50.20
11989;DHT22;6054;50.966;7.094;2022-10-28T08:46:21;26.00;50.10
11989;DHT22;6054;50.966;7.094;2022-10-28T08:48:52;26.00;50.10
11989;DHT22;6054;50.966;7.094;2022-10-28T08:51:23;26.00;49.80
11989;DHT22;6054;50.966;7.094;2022-10-28T08:53:57;26.00;50.00
11989;DHT22;6054;50.966;7.094;2022-10-28T08:56:30;26.00;49.90
11989;DHT22;6054;50.966;7.094;2022-10-28T08:59:00;26.10;50.10
11989;DHT22;6054;50.966;7.094;2022-10-28T09:01:34;26.10;50.00
11989;DHT22;6054;50.966;7.094;2022-10-28T09:04:06;26.10;50.10
11989;DHT22;6054;50.966;7.094;2022-10-28T09:06:38;26.10;50.10
11989;DHT22;6054;50.966;7.094;2022-10-28T09:09:05;26.20;49.50
11989;DHT22;6054;50.966;7.094;2022-10-28T09:11:46;26.30;49.70
11989;DHT22;6054;50.966;7.094;2022-10-28T09:14:32;26.30;49.80
11989;DHT22;6054;50.966;7.094;2022-10-28T09:17:10;26.30;49.80
11989;DHT22;6054;50.966;7.094;2022-10-28T09:19:46;26.40;49.80
11989;DHT22;6054;50.966;7.094;2022-10-28T09:22:21;26.50;49.70
11989;DHT22;6054;50.966;7.094;2022-10-28T09:24:51;26.50;49.40
11989;DHT22;6054;50.966;7.094;2022-10-28T09:27:28;26.60;49.50
11989;DHT22;6054;50.966;7.094;2022-10-28T09:30:03;26.60;49.40
11989;DHT22;6054;50.966;7.094;2022-10-28T09:32:38;26.70;49.60
11989;DHT22;6054;50.966;7.094;2022-10-28T09:35:11;27.00;49.50
11989;DHT22;6054;50.966;7.094;2022-10-28T09:37:41;26.80;48.90
11989;DHT22;6054;50.966;7.094;2022-10-28T09:40:14;26.90;49.10
11989;DHT22;6054;50.966;7.094;2022-10-28T09:42:45;27.00;48.80
11989;DHT22;6054;50.966;7.094;2022-10-28T09:45:18;27.10;48.30
11989;DHT22;6054;50.966;7.094;2022-10-28T09:47:50;27.20;48.40
11989;DHT22;6054;50.966;7.094;2022-10-28T09:50:23;27.20;48.30
11989;DHT22;6054;50.966;7.094;2022-10-28T09:52:58;27.50;48.30
11989;DHT22;6054;50.966;7.094;2022-10-28T09:55:26;27.40;48.10
11989;DHT22;6054;50.966;7.094;2022-10-28T09:57:53;27.50;47.50
11989;DHT22;6054;50.966;7.094;2022-10-28T10:00:20;27.50;47.50
11989;DHT22;6054;50.966;7.094;2022-10-28T10:02:49;27.50;47.80
11989;DHT22;6054;50.966;7.094;2022-10-28T10:05:20;27.60;48.30
11989;DHT22;6054;50.966;7.094;2022-10-28T10:07:50;27.90;47.70
11989;DHT22;6054;50.966;7.094;2022-10-28T10:10:21;27.70;47.50
11989;DHT22;6054;50.966;7.094;2022-10-28T10:12:49;27.80;47.60
11989;DHT22;6054;50.966;7.094;2022-10-28T10:15:25;27.90;47.30
11989;DHT22;6054;50.966;7.094;2022-10-28T10:17:56;27.90;47.30
11989;DHT22;6054;50.966;7.094;2022-10-28T10:20:25;28.10;47.30
11989;DHT22;6054;50.966;7.094;2022-10-28T10:22:52;28.10;46.80
11989;DHT22;6054;50.966;7.094;2022-10-28T10:25:27;28.40;47.00
11989;DHT22;6054;50.966;7.094;2022-10-28T10:28:00;28.30;47.00
11989;DHT22;6054;50.966;7.094;2022-10-28T10:30:30;28.20;46.90
11989;DHT22;6054;50.966;7.094;2022-10-28T10:32:58;28.30;46.80
11989;DHT22;6054;50.966;7.094;2022-10-28T10:35:28;28.40;46.60
11989;DHT22;6054;50.966;7.094;2022-10-28T10:37:57;28.40;46.70
11989;DHT22;6054;50.966;7.094;2022-10-28T10:40:27;28.40;46.40
11989;DHT22;6054;50.966;7.094;2022-10-28T10:42:57;28.50;46.40
11989;DHT22;6054;50.966;7.094;2022-10-28T10:45:39;28.60;46.50
11989;DHT22;6054;50.966;7.094;2022-10-28T10:48:11;28.70;46.20
11989;DHT22;6054;50.966;7.094;2022-10-28T10:50:41;28.60;46.50
11989;DHT22;6054;50.966;7.094;2022-10-28T10:53:17;28.70;46.50
11989;DHT22;6054;50.966;7.094;2022-10-28T10:55:49;28.70;46.50
11989;DHT22;6054;50.966;7.094;2022-10-28T10:58:19;28.80;46.20
11989;DHT22;6054;50.966;7.094;2022-10-28T11:00:48;28.90;46.30
11989;DHT22;6054;50.966;7.094;2022-10-28T11:03:18;28.90;46.10
11989;DHT22;6054;50.966;7.094;2022-10-28T11:05:50;29.10;46.50
11989;DHT22;6054;50.966;7.094;2022-10-28T11:08:30;29.10;46.40
11989;DHT22;6054;50.966;7.094;2022-10-28T11:11:11;29.00;46.40
11989;DHT22;6054;50.966;7.094;2022-10-28T11:13:39;29.00;46.20
11989;DHT22;6054;50.966;7.094;2022-10-28T11:16:15;29.10;46.10
11989;DHT22;6054;50.966;7.094;2022-10-28T11:18:44;29.10;46.30
11989;DHT22;6054;50.966;7.094;2022-10-28T11:21:35;29.20;46.20
11989;DHT22;6054;50.966;7.094;2022-10-28T11:24:19;29.20;46.10
11989;DHT22;6054;50.966;7.094;2022-10-28T11:26:52;29.30;46.20
11989;DHT22;6054;50.966;7.094;2022-10-28T11:29:20;29.40;46.30
11989;DHT22;6054;50.966;7.094;2022-10-28T11:32:18;29.70;45.70
11989;DHT22;6054;50.966;7.094;2022-10-28T11:35:04;29.50;45.70
11989;DHT22;6054;50.966;7.094;2022-10-28T11:37:44;29.50;45.00
11989;DHT22;6054;50.966;7.094;2022-10-28T11:40:24;29.60;45.00
11989;DHT22;6054;50.966;7.094;2022-10-28T11:43:06;29.60;45.00
11989;DHT22;6054;50.966;7.094;2022-10-28T11:45:37;29.70;45.10
11989;DHT22;6054;50.966;7.094;2022-10-28T11:48:19;29.70;45.00
11989;DHT22;6054;50.966;7.094;2022-10-28T11:51:01;29.80;45.00
11989;DHT22;6054;50.966;7.094;2022-10-28T11:53:46;29.80;44.80
11989;DHT22;6054;50.966;7.094;2022-10-28T11:56:24;30.00;44.70
11989;DHT22;6054;50.966;7.094;2022-10-28T11:59:05;29.90;44.10
11989;DHT22;6054;50.966;7.094;2022-10-28T12:01:43;29.90;43.80
11989;DHT22;6054;50.966;7.094;2022-10-28T12:04:19;29.90;43.70
11989;DHT22;6054;50.966;7.094;2022-10-28T12:07:10;30.00;43.60
11989;DHT22;6054;50.966;7.094;2022-10-28T12:10:00;30.00;43.70
11989;DHT22;6054;50.966;7.094;2022-10-28T12:12:36;30.00;43.70
11989;DHT22;6054;50.966;7.094;2022-10-28T12:15:16;30.10;43.60
11989;DHT22;6054;50.966;7.094;2022-10-28T12:17:49;30.10;43.70
11989;DHT22;6054;50.966;7.094;2022-10-28T12:20:22;30.30;43.60
11989;DHT22;6054;50.966;7.094;2022-10-28T12:22:52;30.20;43.40
11989;DHT22;6054;50.966;7.094;2022-10-28T12:25:24;30.20;42.50
11989;DHT22;6054;50.966;7.094;2022-10-28T12:27:56;30.30;43.00
11989;DHT22;6054;50.966;7.094;2022-10-28T12:30:26;30.40;43.00
11989;DHT22;6054;50.966;7.094;2022-10-28T12:32:58;30.40;42.20
11989;DHT22;6054;50.966;7.094;2022-10-28T12:35:29;30.60;43.00
11989;DHT22;6054;50.966;7.094;2022-10-28T12:38:01;30.60;43.00
11989;DHT22;6054;50.966;7.094;2022-10-28T12:40:34;30.60;42.70
11989;DHT22;6054;50.966;7.094;2022-10-28T12:43:06;30.70;42.40
11989;DHT22;6054;50.966;7.094;2022-10-28T12:45:37;30.80;42.20
11989;DHT22;6054;50.966;7.094;2022-10-28T12:48:13;30.80;41.50
11989;DHT22;6054;50.966;7.094;2022-10-28T12:50:48;30.80;41.60
11989;DHT22;6054;50.966;7.094;2022-10-28T12:53:23;30.80;41.60
11989;DHT22;6054;50.966;7.094;2022-10-28T12:55:57;30.80;41.80
11989;DHT22;6054;50.966;7.094;2022-10-28T12:58:30;30.90;40.90
11989;DHT22;6054;50.966;7.094;2022-10-28T13:01:00;31.00;41.70
11989;DHT22;6054;50.966;7.094;2022-10-28T13:03:28;31.10;41.70
11989;DHT22;6054;50.966;7.094;2022-10-28T13:06:05;30.90;41.50
11989;DHT22;6054;50.966;7.094;2022-10-28T13:09:09;30.90;41.80
11989;DHT22;6054;50.966;7.094;2022-10-28T13:11:59;30.90;42.10
11989;DHT22;6054;50.966;7.094;2022-10-28T13:14:45;30.90;41.90
11989;DHT22;6054;50.966;7.094;2022-10-28T13:17:32;30.90;41.80
11989;DHT22;6054;50.966;7.094;2022-10-28T13:20:12;30.90;41.90
11989;DHT22;6054;50.966;7.094;2022-10-28T13:23:16;31.10;42.20
11989;DHT22;6054;50.966;7.094;2022-10-28T13:26:02;30.90;42.50
11989;DHT22;6054;50.966;7.094;2022-10-28T13:28:40;30.90;42.60
11989;DHT22;6054;50.966;7.094;2022-10-28T13:31:08;30.90;42.30
11989;DHT22;6054;50.966;7.094;2022-10-28T13:33:37;30.90;42.00
11989;DHT22;6054;50.966;7.094;2022-10-28T13:36:14;30.90;42.10
11989;DHT22;6054;50.966;7.094;2022-10-28T13:38:41;30.90;42.10
11989;DHT22;6054;50.966;7.094;2022-10-28T13:41:30;30.90;42.20
11989;DHT22;6054;50.966;7.094;2022-10-28T13:44:20;30.90;42.20
11989;DHT22;6054;50.966;7.094;2022-10-28T13:50:32;30.90;42.40
11989;DHT22;6054;50.966;7.094;2022-10-28T13:56:27;30.90;42.50
11989;DHT22;6054;50.966;7.094;2022-10-28T13:58:58;30.90;42.40
11989;DHT22;6054;50.966;7.094;2022-10-28T14:01:45;30.90;42.00
11989;DHT22;6054;50.966;7.094;2022-10-28T14:04:21;30.90;41.90
11989;DHT22;6054;50.966;7.094;2022-10-28T14:06:49;30.90;42.00
11989;DHT22;6054;50.966;7.094;2022-10-28T14:09:28;30.90;40.80
11989;DHT22;6054;50.966;7.094;2022-10-28T14:12:17;31.10;42.10
11989;DHT22;6054;50.966;7.094;2022-10-28T14:15:18;30.90;42.40
11989;DHT22;6054;50.966;7.094;2022-10-28T14:17:49;30.90;42.40
11989;DHT22;6054;50.966;7.094;2022-10-28T14:20:22;30.90;42.50
11989;DHT22;6054;50.966;7.094;2022-10-28T14:22:50;30.80;42.50
11989;DHT22;6054;50.966;7.094;2022-10-28T14:28:55;30.80;42.90
11989;DHT22;6054;50.966;7.094;2022-10-28T14:34:35;30.80;43.10
11989;DHT22;6054;50.966;7.094;2022-10-28T14:37:43;30.80;43.80
11989;DHT22;6054;50.966;7.094;2022-10-28T14:40:24;30.80;44.60
11989;DHT22;6054;50.966;7.094;2022-10-28T14:43:09;30.70;44.80
11989;DHT22;6054;50.966;7.094;2022-10-28T14:45:43;30.80;44.60
11989;DHT22;6054;50.966;7.094;2022-10-28T14:48:26;30.60;44.30
11989;DHT22;6054;50.966;7.094;2022-10-28T14:50:56;30.60;44.90
11989;DHT22;6054;50.966;7.094;2022-10-28T14:53:28;30.80;45.20
11989;DHT22;6054;50.966;7.094;2022-10-28T14:55:58;30.70;45.30
11989;DHT22;6054;50.966;7.094;2022-10-28T14:58:29;30.60;45.30
11989;DHT22;6054;50.966;7.094;2022-10-28T15:01:06;30.50;45.30
11989;DHT22;6054;50.966;7.094;2022-10-28T15:03:37;30.50;45.60
11989;DHT22;6054;50.966;7.094;2022-10-28T15:06:27;30.50;45.00
11989;DHT22;6054;50.966;7.094;2022-10-28T15:09:00;30.40;45.20
11989;DHT22;6054;50.966;7.094;2022-10-28T15:11:28;30.40;45.00
11989;DHT22;6054;50.966;7.094;2022-10-28T15:14:11;30.40;44.80
11989;DHT22;6054;50.966;7.094;2022-10-28T15:16:45;30.40;45.00
11989;DHT22;6054;50.966;7.094;2022-10-28T15:19:13;30.30;44.80
11989;DHT22;6054;50.966;7.094;2022-10-28T15:21:57;30.30;44.80
11989;DHT22;6054;50.966;7.094;2022-10-28T15:24:24;30.30;44.70
11989;DHT22;6054;50.966;7.094;2022-10-28T15:26:52;30.50;44.40
11989;DHT22;6054;50.966;7.094;2022-10-28T15:29:19;30.20;44.60
11989;DHT22;6054;50.966;7.094;2022-10-28T15:32:12;30.20;44.50
11989;DHT22;6054;50.966;7.094;2022-10-28T15:34:41;30.20;45.00
11989;DHT22;6054;50.966;7.094;2022-10-28T15:37:10;30.10;44.70
11989;DHT22;6054;50.966;7.094;2022-10-28T15:39:42;30.20;44.60
11989;DHT22;6054;50.966;7.094;2022-10-28T15:42:32;30.20;44.40
11989;DHT22;6054;50.966;7.094;2022-10-28T15:45:02;30.10;43.80
11989;DHT22;6054;50.966;7.094;2022-10-28T15:47:31;30.10;44.10
11989;DHT22;6054;50.966;7.094;2022-10-28T15:50:03;30.00;44.30
11989;DHT22;6054;50.966;7.094;2022-10-28T15:52:34;30.20;44.40
11989;DHT22;6054;50.966;7.094;2022-10-28T15:55:12;30.00;44.50
11989;DHT22;6054;50.966;7.094;2022-10-28T15:57:51;29.90;44.40
11989;DHT22;6054;50.966;7.094;2022-10-28T16:00:20;30.20;44.30
11989;DHT22;6054;50.966;7.094;2022-10-28T16:02:53;29.90;44.20
11989;DHT22;6054;50.966;7.094;2022-10-28T16:05:44;29.90;44.80
11989;DHT22;6054;50.966;7.094;2022-10-28T16:08:24;29.80;44.60
11989;DHT22;6054;50.966;7.094;2022-10-28T16:10:55;29.80;44.80
11989;DHT22;6054;50.966;7.094;2022-10-28T16:13:26;29.80;44.80
11989;DHT22;6054;50.966;7.094;2022-10-28T16:15:56;29.70;44.80
11989;DHT22;6054;50.966;7.094;2022-10-28T16:18:24;29.70;44.80
11989;DHT22;6054;50.966;7.094;2022-10-28T16:20:52;29.90;45.10
11989;DHT22;6054;50.966;7.094;2022-10-28T16:23:22;29.60;45.00
11989;DHT22;6054;50.966;7.094;2022-10-28T16:25:50;29.70;45.20
11989;DHT22;6054;50.966;7.094;2022-10-28T16:28:23;29.60;45.40